Main page
METAR-TAF:

METAR-TAF

Airports :

RAF Cranwell

Cranwell, England

latitude: 53-02N, longitude: 000-30W, elevation: 67 m

Current weather observation

The report was made 48 minutes ago, at 23:50 UTC
Wind 12 kt from the North/Northeast
Temperature 9°C
Humidity 87%
Pressure 1025 hPa
Visibility: 8000 m

METAR: EGYD 232350Z AUTO 02012KT 8000 // OVC005/// 09/07 Q1025

Time: 01:38 (00:38 UTC)

Forecast

The report was made 5 hours and 1 minutes ago, at 19:37 UTC
Forecast valid from 23 at 21 UTC to 23 at 24 UTC
Wind 14 kt from the North/Northeast
Visibility: 8000 m
Broken clouds at a height of 800 ft
haze
Becoming
from 23 at 21 UTC to 23 at 22 UTC
Visibility: 6000 m
Broken clouds at a height of 600 ft
Probability 30%
from 23 at 22 UTC to 23 at 24 UTC
Visibility: 4000 m
Broken clouds at a height of 400 ft
mist

TAF: EGYD 231937Z 2321/2324 03014KT 8000 HZ BKN008 BECMG 2321/2322 6000 BKN006 PROB30 2322/2324 4000 BR BKN004

Weather observations and forecasts of more than 4000 airports (METAR and TAF reports).

The available stations are represented by yellow and red dots on the map.

Hover mouse over dot to see the name of the station.

Then click to see weather observations and forecasts.

To change the map : click on the green buttons with a black cross to zoom in, on the green button with a dash to zoom out, or on the green arrows for adjacent maps.


METAR-TAF: